sensor_id;sensor_type;location;lat;lon;timestamp;P1;durP1;ratioP1;P2;durP2;ratioP2
40745;SDS011;26454;51.164;4.488;2023-07-13T00:01:11;9.32;;;2.97;;
40745;SDS011;26454;51.164;4.488;2023-07-13T00:03:37;7.43;;;2.58;;
40745;SDS011;26454;51.164;4.488;2023-07-13T00:06:06;10.82;;;2.97;;
40745;SDS011;26454;51.164;4.488;2023-07-13T00:08:32;7.60;;;2.60;;
40745;SDS011;26454;51.164;4.488;2023-07-13T00:10:58;12.82;;;3.20;;
40745;SDS011;26454;51.164;4.488;2023-07-13T00:13:24;6.45;;;2.85;;
40745;SDS011;26454;51.164;4.488;2023-07-13T00:15:50;5.97;;;2.20;;
40745;SDS011;26454;51.164;4.488;2023-07-13T00:18:18;14.68;;;2.95;;
40745;SDS011;26454;51.164;4.488;2023-07-13T00:20:45;11.55;;;3.20;;
40745;SDS011;26454;51.164;4.488;2023-07-13T00:23:11;9.35;;;2.72;;
40745;SDS011;26454;51.164;4.488;2023-07-13T00:25:37;9.50;;;3.20;;
40745;SDS011;26454;51.164;4.488;2023-07-13T00:28:03;9.23;;;2.92;;
40745;SDS011;26454;51.164;4.488;2023-07-13T00:30:29;9.27;;;2.22;;
40745;SDS011;26454;51.164;4.488;2023-07-13T00:32:55;11.27;;;2.70;;
40745;SDS011;26454;51.164;4.488;2023-07-13T00:35:21;11.93;;;3.42;;
40745;SDS011;26454;51.164;4.488;2023-07-13T00:37:47;11.27;;;3.05;;
40745;SDS011;26454;51.164;4.488;2023-07-13T00:40:13;11.13;;;3.08;;
40745;SDS011;26454;51.164;4.488;2023-07-13T00:42:40;7.90;;;2.88;;
40745;SDS011;26454;51.164;4.488;2023-07-13T00:46:14;9.68;;;3.10;;
40745;SDS011;26454;51.164;4.488;2023-07-13T00:47:52;10.32;;;2.92;;
40745;SDS011;26454;51.164;4.488;2023-07-13T00:50:19;8.27;;;3.45;;
40745;SDS011;26454;51.164;4.488;2023-07-13T00:52:48;9.82;;;3.78;;
40745;SDS011;26454;51.164;4.488;2023-07-13T00:55:15;10.85;;;3.70;;
40745;SDS011;26454;51.164;4.488;2023-07-13T00:57:41;8.45;;;3.33;;
40745;SDS011;26454;51.164;4.488;2023-07-13T01:00:08;9.98;;;3.00;;
40745;SDS011;26454;51.164;4.488;2023-07-13T01:02:35;7.70;;;3.38;;
40745;SDS011;26454;51.164;4.488;2023-07-13T01:05:04;10.82;;;4.00;;
40745;SDS011;26454;51.164;4.488;2023-07-13T01:07:34;12.25;;;3.25;;
40745;SDS011;26454;51.164;4.488;2023-07-13T01:10:01;9.52;;;2.85;;
40745;SDS011;26454;51.164;4.488;2023-07-13T01:12:27;15.85;;;3.85;;
40745;SDS011;26454;51.164;4.488;2023-07-13T01:14:57;7.47;;;2.85;;
40745;SDS011;26454;51.164;4.488;2023-07-13T01:17:25;15.23;;;3.67;;
40745;SDS011;26454;51.164;4.488;2023-07-13T01:19:51;8.85;;;2.92;;
40745;SDS011;26454;51.164;4.488;2023-07-13T01:22:18;7.47;;;2.70;;
40745;SDS011;26454;51.164;4.488;2023-07-13T01:24:45;9.55;;;3.35;;
40745;SDS011;26454;51.164;4.488;2023-07-13T01:27:13;9.38;;;3.70;;
40745;SDS011;26454;51.164;4.488;2023-07-13T01:29:40;12.68;;;5.15;;
40745;SDS011;26454;51.164;4.488;2023-07-13T01:32:09;12.45;;;3.58;;
40745;SDS011;26454;51.164;4.488;2023-07-13T01:34:35;7.47;;;3.00;;
40745;SDS011;26454;51.164;4.488;2023-07-13T01:37:02;11.43;;;4.38;;
40745;SDS011;26454;51.164;4.488;2023-07-13T01:39:28;7.93;;;3.47;;
40745;SDS011;26454;51.164;4.488;2023-07-13T01:41:54;8.70;;;3.63;;
40745;SDS011;26454;51.164;4.488;2023-07-13T01:44:20;11.75;;;3.97;;
40745;SDS011;26454;51.164;4.488;2023-07-13T01:46:46;11.52;;;3.22;;
40745;SDS011;26454;51.164;4.488;2023-07-13T01:49:12;19.73;;;3.50;;
40745;SDS011;26454;51.164;4.488;2023-07-13T01:51:38;7.55;;;3.35;;
40745;SDS011;26454;51.164;4.488;2023-07-13T01:54:04;12.05;;;3.67;;
40745;SDS011;26454;51.164;4.488;2023-07-13T01:56:30;14.80;;;3.75;;
40745;SDS011;26454;51.164;4.488;2023-07-13T01:58:56;13.38;;;4.43;;
40745;SDS011;26454;51.164;4.488;2023-07-13T02:01:22;12.15;;;3.63;;
40745;SDS011;26454;51.164;4.488;2023-07-13T02:03:48;12.65;;;4.40;;
40745;SDS011;26454;51.164;4.488;2023-07-13T02:06:14;10.57;;;4.40;;
40745;SDS011;26454;51.164;4.488;2023-07-13T02:08:41;8.18;;;3.60;;
40745;SDS011;26454;51.164;4.488;2023-07-13T02:11:07;13.43;;;3.75;;
40745;SDS011;26454;51.164;4.488;2023-07-13T02:13:34;12.43;;;3.47;;
40745;SDS011;26454;51.164;4.488;2023-07-13T02:16:00;9.32;;;3.80;;
40745;SDS011;26454;51.164;4.488;2023-07-13T02:18:26;9.65;;;3.35;;
40745;SDS011;26454;51.164;4.488;2023-07-13T02:20:52;11.95;;;3.92;;
40745;SDS011;26454;51.164;4.488;2023-07-13T02:23:18;10.50;;;4.55;;
40745;SDS011;26454;51.164;4.488;2023-07-13T02:25:44;11.75;;;3.58;;
40745;SDS011;26454;51.164;4.488;2023-07-13T02:28:11;11.95;;;4.45;;
40745;SDS011;26454;51.164;4.488;2023-07-13T02:30:37;12.63;;;4.30;;
40745;SDS011;26454;51.164;4.488;2023-07-13T02:33:04;11.60;;;4.43;;
40745;SDS011;26454;51.164;4.488;2023-07-13T02:35:30;10.90;;;4.15;;
40745;SDS011;26454;51.164;4.488;2023-07-13T02:37:56;10.75;;;3.88;;
40745;SDS011;26454;51.164;4.488;2023-07-13T02:40:22;7.88;;;3.30;;
40745;SDS011;26454;51.164;4.488;2023-07-13T02:42:48;13.57;;;4.70;;
40745;SDS011;26454;51.164;4.488;2023-07-13T02:45:14;16.25;;;4.65;;
40745;SDS011;26454;51.164;4.488;2023-07-13T02:47:41;13.70;;;4.07;;
40745;SDS011;26454;51.164;4.488;2023-07-13T02:50:07;11.10;;;4.45;;
40745;SDS011;26454;51.164;4.488;2023-07-13T02:52:33;14.57;;;3.72;;
40745;SDS011;26454;51.164;4.488;2023-07-13T02:54:59;13.13;;;4.35;;
40745;SDS011;26454;51.164;4.488;2023-07-13T02:57:25;12.48;;;4.93;;
40745;SDS011;26454;51.164;4.488;2023-07-13T02:59:53;11.07;;;3.67;;
40745;SDS011;26454;51.164;4.488;2023-07-13T03:02:19;12.27;;;3.78;;
40745;SDS011;26454;51.164;4.488;2023-07-13T03:04:45;12.27;;;3.58;;
40745;SDS011;26454;51.164;4.488;2023-07-13T03:07:11;15.18;;;4.65;;
40745;SDS011;26454;51.164;4.488;2023-07-13T03:09:39;14.35;;;3.50;;
40745;SDS011;26454;51.164;4.488;2023-07-13T03:12:05;11.65;;;4.22;;
40745;SDS011;26454;51.164;4.488;2023-07-13T03:14:31;13.02;;;4.03;;
40745;SDS011;26454;51.164;4.488;2023-07-13T03:16:57;15.52;;;4.00;;
40745;SDS011;26454;51.164;4.488;2023-07-13T03:19:23;11.88;;;3.70;;
40745;SDS011;26454;51.164;4.488;2023-07-13T03:21:49;8.52;;;3.35;;
40745;SDS011;26454;51.164;4.488;2023-07-13T03:24:15;12.13;;;3.35;;
40745;SDS011;26454;51.164;4.488;2023-07-13T03:26:41;14.15;;;4.15;;
40745;SDS011;26454;51.164;4.488;2023-07-13T03:29:08;11.80;;;4.07;;
40745;SDS011;26454;51.164;4.488;2023-07-13T03:31:34;13.35;;;4.00;;
40745;SDS011;26454;51.164;4.488;2023-07-13T03:34:00;11.80;;;4.30;;
40745;SDS011;26454;51.164;4.488;2023-07-13T03:36:27;14.98;;;4.53;;
40745;SDS011;26454;51.164;4.488;2023-07-13T03:38:54;14.20;;;4.95;;
40745;SDS011;26454;51.164;4.488;2023-07-13T03:41:21;15.32;;;4.45;;
40745;SDS011;26454;51.164;4.488;2023-07-13T03:43:47;14.55;;;4.93;;
40745;SDS011;26454;51.164;4.488;2023-07-13T03:46:14;11.98;;;5.03;;
40745;SDS011;26454;51.164;4.488;2023-07-13T03:48:41;12.90;;;4.63;;
40745;SDS011;26454;51.164;4.488;2023-07-13T03:51:08;15.25;;;5.22;;
40745;SDS011;26454;51.164;4.488;2023-07-13T03:53:38;15.07;;;5.10;;
40745;SDS011;26454;51.164;4.488;2023-07-13T03:58:32;10.50;;;4.28;;
40745;SDS011;26454;51.164;4.488;2023-07-13T04:00:59;15.45;;;4.95;;
40745;SDS011;26454;51.164;4.488;2023-07-13T04:03:26;17.73;;;5.85;;
40745;SDS011;26454;51.164;4.488;2023-07-13T04:05:53;14.73;;;4.80;;
40745;SDS011;26454;51.164;4.488;2023-07-13T04:08:19;16.73;;;5.68;;
40745;SDS011;26454;51.164;4.488;2023-07-13T04:10:45;18.75;;;6.22;;
40745;SDS011;26454;51.164;4.488;2023-07-13T04:13:11;22.05;;;7.15;;
40745;SDS011;26454;51.164;4.488;2023-07-13T04:15:38;17.92;;;6.28;;
40745;SDS011;26454;51.164;4.488;2023-07-13T04:18:05;16.10;;;5.70;;
40745;SDS011;26454;51.164;4.488;2023-07-13T04:20:31;14.32;;;5.10;;
40745;SDS011;26454;51.164;4.488;2023-07-13T04:22:57;19.58;;;6.65;;
40745;SDS011;26454;51.164;4.488;2023-07-13T04:25:23;20.13;;;6.97;;
40745;SDS011;26454;51.164;4.488;2023-07-13T04:27:50;17.92;;;5.13;;
40745;SDS011;26454;51.164;4.488;2023-07-13T04:30:17;18.45;;;5.32;;
40745;SDS011;26454;51.164;4.488;2023-07-13T04:32:42;13.15;;;4.65;;
40745;SDS011;26454;51.164;4.488;2023-07-13T04:35:08;17.27;;;5.88;;
40745;SDS011;26454;51.164;4.488;2023-07-13T04:37:34;17.63;;;4.85;;
40745;SDS011;26454;51.164;4.488;2023-07-13T04:40:01;14.30;;;5.07;;
40745;SDS011;26454;51.164;4.488;2023-07-13T04:42:28;22.25;;;7.15;;
40745;SDS011;26454;51.164;4.488;2023-07-13T04:44:54;10.05;;;4.20;;
40745;SDS011;26454;51.164;4.488;2023-07-13T04:47:21;16.67;;;4.95;;
40745;SDS011;26454;51.164;4.488;2023-07-13T04:49:47;15.32;;;4.88;;
40745;SDS011;26454;51.164;4.488;2023-07-13T04:52:13;14.23;;;4.53;;
40745;SDS011;26454;51.164;4.488;2023-07-13T04:54:39;17.13;;;5.03;;
40745;SDS011;26454;51.164;4.488;2023-07-13T04:57:05;16.98;;;5.50;;
40745;SDS011;26454;51.164;4.488;2023-07-13T04:59:31;11.27;;;4.43;;
40745;SDS011;26454;51.164;4.488;2023-07-13T05:01:57;17.50;;;5.13;;
40745;SDS011;26454;51.164;4.488;2023-07-13T05:04:23;13.88;;;4.97;;
40745;SDS011;26454;51.164;4.488;2023-07-13T05:06:49;15.90;;;5.10;;
40745;SDS011;26454;51.164;4.488;2023-07-13T05:09:15;20.42;;;5.00;;
40745;SDS011;26454;51.164;4.488;2023-07-13T05:11:42;22.45;;;5.72;;
40745;SDS011;26454;51.164;4.488;2023-07-13T05:14:08;19.23;;;6.28;;
40745;SDS011;26454;51.164;4.488;2023-07-13T05:16:35;17.48;;;5.07;;
40745;SDS011;26454;51.164;4.488;2023-07-13T05:19:01;16.05;;;5.40;;
40745;SDS011;26454;51.164;4.488;2023-07-13T05:21:28;23.52;;;6.07;;
40745;SDS011;26454;51.164;4.488;2023-07-13T05:23:54;13.98;;;4.50;;
40745;SDS011;26454;51.164;4.488;2023-07-13T05:26:20;10.30;;;4.60;;
40745;SDS011;26454;51.164;4.488;2023-07-13T05:28:46;17.15;;;5.40;;
40745;SDS011;26454;51.164;4.488;2023-07-13T05:31:12;18.70;;;4.15;;
40745;SDS011;26454;51.164;4.488;2023-07-13T05:33:39;19.77;;;5.80;;
40745;SDS011;26454;51.164;4.488;2023-07-13T05:36:05;25.20;;;4.97;;
40745;SDS011;26454;51.164;4.488;2023-07-13T05:38:32;14.00;;;5.10;;
40745;SDS011;26454;51.164;4.488;2023-07-13T05:40:58;19.20;;;6.00;;
40745;SDS011;26454;51.164;4.488;2023-07-13T05:43:24;12.63;;;4.78;;
40745;SDS011;26454;51.164;4.488;2023-07-13T05:45:52;20.35;;;5.43;;
40745;SDS011;26454;51.164;4.488;2023-07-13T05:48:19;15.98;;;6.55;;
40745;SDS011;26454;51.164;4.488;2023-07-13T05:50:45;17.08;;;6.03;;
40745;SDS011;26454;51.164;4.488;2023-07-13T05:53:11;14.60;;;4.60;;
40745;SDS011;26454;51.164;4.488;2023-07-13T05:55:45;12.85;;;4.53;;
40745;SDS011;26454;51.164;4.488;2023-07-13T05:58:15;18.00;;;5.25;;
40745;SDS011;26454;51.164;4.488;2023-07-13T06:00:42;14.00;;;5.13;;
40745;SDS011;26454;51.164;4.488;2023-07-13T06:03:08;13.85;;;4.53;;
40745;SDS011;26454;51.164;4.488;2023-07-13T06:05:35;17.63;;;4.97;;
40745;SDS011;26454;51.164;4.488;2023-07-13T06:08:02;17.60;;;5.35;;
40745;SDS011;26454;51.164;4.488;2023-07-13T06:10:28;16.58;;;4.55;;
40745;SDS011;26454;51.164;4.488;2023-07-13T06:12:55;14.77;;;4.55;;
40745;SDS011;26454;51.164;4.488;2023-07-13T06:15:21;12.55;;;5.50;;
40745;SDS011;26454;51.164;4.488;2023-07-13T06:17:47;14.23;;;5.47;;
40745;SDS011;26454;51.164;4.488;2023-07-13T06:20:13;17.13;;;4.90;;
40745;SDS011;26454;51.164;4.488;2023-07-13T06:22:39;18.00;;;5.72;;
40745;SDS011;26454;51.164;4.488;2023-07-13T06:25:05;15.80;;;4.80;;
40745;SDS011;26454;51.164;4.488;2023-07-13T06:27:31;16.67;;;4.70;;
40745;SDS011;26454;51.164;4.488;2023-07-13T06:29:57;14.43;;;4.97;;
40745;SDS011;26454;51.164;4.488;2023-07-13T06:32:23;15.13;;;5.28;;
40745;SDS011;26454;51.164;4.488;2023-07-13T06:34:49;15.90;;;5.00;;
40745;SDS011;26454;51.164;4.488;2023-07-13T06:37:16;18.65;;;5.32;;
40745;SDS011;26454;51.164;4.488;2023-07-13T06:39:42;18.50;;;5.07;;
40745;SDS011;26454;51.164;4.488;2023-07-13T06:42:08;25.88;;;5.30;;
40745;SDS011;26454;51.164;4.488;2023-07-13T06:44:35;10.00;;;4.47;;
40745;SDS011;26454;51.164;4.488;2023-07-13T06:47:01;11.38;;;3.97;;
40745;SDS011;26454;51.164;4.488;2023-07-13T06:49:27;19.30;;;4.20;;
40745;SDS011;26454;51.164;4.488;2023-07-13T06:51:52;24.00;;;5.90;;
40745;SDS011;26454;51.164;4.488;2023-07-13T06:54:18;14.07;;;4.70;;
40745;SDS011;26454;51.164;4.488;2023-07-13T06:56:44;14.80;;;5.07;;
40745;SDS011;26454;51.164;4.488;2023-07-13T06:59:10;17.92;;;5.57;;
40745;SDS011;26454;51.164;4.488;2023-07-13T07:01:36;12.40;;;4.85;;
40745;SDS011;26454;51.164;4.488;2023-07-13T07:04:03;24.15;;;6.10;;
40745;SDS011;26454;51.164;4.488;2023-07-13T07:06:29;15.10;;;5.25;;
40745;SDS011;26454;51.164;4.488;2023-07-13T07:08:55;18.38;;;5.97;;
40745;SDS011;26454;51.164;4.488;2023-07-13T07:11:22;15.32;;;4.95;;
40745;SDS011;26454;51.164;4.488;2023-07-13T07:13:49;16.42;;;5.40;;
40745;SDS011;26454;51.164;4.488;2023-07-13T07:16:15;10.75;;;4.40;;
40745;SDS011;26454;51.164;4.488;2023-07-13T07:18:41;19.40;;;6.03;;
40745;SDS011;26454;51.164;4.488;2023-07-13T07:21:08;15.57;;;4.80;;
40745;SDS011;26454;51.164;4.488;2023-07-13T07:23:35;17.75;;;5.85;;
40745;SDS011;26454;51.164;4.488;2023-07-13T07:26:01;18.25;;;4.25;;
40745;SDS011;26454;51.164;4.488;2023-07-13T07:28:27;21.23;;;5.50;;
40745;SDS011;26454;51.164;4.488;2023-07-13T07:30:54;18.05;;;5.90;;
40745;SDS011;26454;51.164;4.488;2023-07-13T07:33:21;15.30;;;4.70;;
40745;SDS011;26454;51.164;4.488;2023-07-13T07:35:50;13.50;;;4.88;;
40745;SDS011;26454;51.164;4.488;2023-07-13T07:38:16;16.63;;;5.00;;
40745;SDS011;26454;51.164;4.488;2023-07-13T07:40:42;14.38;;;4.78;;
40745;SDS011;26454;51.164;4.488;2023-07-13T07:43:09;14.52;;;4.80;;
40745;SDS011;26454;51.164;4.488;2023-07-13T07:45:35;16.08;;;6.20;;
40745;SDS011;26454;51.164;4.488;2023-07-13T07:48:02;13.75;;;5.10;;
40745;SDS011;26454;51.164;4.488;2023-07-13T07:50:29;16.88;;;5.15;;
40745;SDS011;26454;51.164;4.488;2023-07-13T07:52:55;13.93;;;4.90;;
40745;SDS011;26454;51.164;4.488;2023-07-13T07:55:21;13.65;;;4.70;;
40745;SDS011;26454;51.164;4.488;2023-07-13T07:57:47;13.90;;;4.40;;
40745;SDS011;26454;51.164;4.488;2023-07-13T08:00:14;14.52;;;5.57;;
40745;SDS011;26454;51.164;4.488;2023-07-13T08:02:40;14.48;;;4.38;;
40745;SDS011;26454;51.164;4.488;2023-07-13T08:05:07;14.30;;;4.70;;
40745;SDS011;26454;51.164;4.488;2023-07-13T08:07:33;12.95;;;4.70;;
40745;SDS011;26454;51.164;4.488;2023-07-13T08:09:59;12.38;;;3.58;;
40745;SDS011;26454;51.164;4.488;2023-07-13T08:12:25;14.50;;;5.03;;
40745;SDS011;26454;51.164;4.488;2023-07-13T08:14:52;13.10;;;4.18;;
40745;SDS011;26454;51.164;4.488;2023-07-13T08:17:20;18.00;;;5.78;;
40745;SDS011;26454;51.164;4.488;2023-07-13T08:19:46;11.20;;;4.32;;
40745;SDS011;26454;51.164;4.488;2023-07-13T08:22:12;18.95;;;5.03;;
40745;SDS011;26454;51.164;4.488;2023-07-13T08:24:38;14.80;;;4.53;;
40745;SDS011;26454;51.164;4.488;2023-07-13T08:27:04;8.07;;;3.42;;
40745;SDS011;26454;51.164;4.488;2023-07-13T08:29:30;14.20;;;4.00;;
40745;SDS011;26454;51.164;4.488;2023-07-13T08:31:57;13.05;;;4.03;;
40745;SDS011;26454;51.164;4.488;2023-07-13T08:34:23;13.10;;;4.20;;
40745;SDS011;26454;51.164;4.488;2023-07-13T08:36:49;9.40;;;3.85;;
40745;SDS011;26454;51.164;4.488;2023-07-13T08:39:15;8.82;;;3.50;;
40745;SDS011;26454;51.164;4.488;2023-07-13T08:41:41;18.33;;;5.18;;
40745;SDS011;26454;51.164;4.488;2023-07-13T08:44:15;10.95;;;3.53;;
40745;SDS011;26454;51.164;4.488;2023-07-13T08:46:42;12.00;;;3.65;;
40745;SDS011;26454;51.164;4.488;2023-07-13T08:49:11;11.10;;;3.42;;
40745;SDS011;26454;51.164;4.488;2023-07-13T08:51:42;15.30;;;3.85;;
40745;SDS011;26454;51.164;4.488;2023-07-13T08:54:12;11.23;;;3.67;;
40745;SDS011;26454;51.164;4.488;2023-07-13T08:56:43;12.73;;;3.35;;
40745;SDS011;26454;51.164;4.488;2023-07-13T08:59:13;8.00;;;3.97;;
40745;SDS011;26454;51.164;4.488;2023-07-13T09:04:29;10.75;;;4.03;;
40745;SDS011;26454;51.164;4.488;2023-07-13T09:07:04;11.45;;;3.95;;
40745;SDS011;26454;51.164;4.488;2023-07-13T09:09:37;12.70;;;2.97;;
40745;SDS011;26454;51.164;4.488;2023-07-13T09:12:12;9.55;;;3.35;;
40745;SDS011;26454;51.164;4.488;2023-07-13T09:14:42;13.73;;;3.28;;
40745;SDS011;26454;51.164;4.488;2023-07-13T09:17:12;8.65;;;3.60;;
40745;SDS011;26454;51.164;4.488;2023-07-13T09:19:38;6.13;;;2.88;;
40745;SDS011;26454;51.164;4.488;2023-07-13T09:22:06;9.82;;;3.45;;
40745;SDS011;26454;51.164;4.488;2023-07-13T09:24:38;6.10;;;2.78;;
40745;SDS011;26454;51.164;4.488;2023-07-13T09:27:09;14.63;;;3.10;;
40745;SDS011;26454;51.164;4.488;2023-07-13T09:29:37;7.50;;;2.67;;
40745;SDS011;26454;51.164;4.488;2023-07-13T09:32:09;12.95;;;3.85;;
40745;SDS011;26454;51.164;4.488;2023-07-13T09:34:36;8.60;;;3.03;;
40745;SDS011;26454;51.164;4.488;2023-07-13T09:37:02;7.60;;;3.63;;
40745;SDS011;26454;51.164;4.488;2023-07-13T09:39:30;7.03;;;2.53;;
40745;SDS011;26454;51.164;4.488;2023-07-13T09:42:00;13.20;;;2.88;;
40745;SDS011;26454;51.164;4.488;2023-07-13T09:46:55;11.40;;;3.53;;
40745;SDS011;26454;51.164;4.488;2023-07-13T09:49:23;11.07;;;3.50;;
40745;SDS011;26454;51.164;4.488;2023-07-13T09:51:50;11.82;;;2.85;;
40745;SDS011;26454;51.164;4.488;2023-07-13T09:54:24;14.80;;;3.10;;
40745;SDS011;26454;51.164;4.488;2023-07-13T09:56:54;9.80;;;3.25;;
40745;SDS011;26454;51.164;4.488;2023-07-13T09:59:21;8.48;;;3.00;;
40745;SDS011;26454;51.164;4.488;2023-07-13T10:01:49;5.72;;;2.80;;
40745;SDS011;26454;51.164;4.488;2023-07-13T10:04:18;8.60;;;2.58;;
40745;SDS011;26454;51.164;4.488;2023-07-13T10:09:19;11.23;;;3.40;;
40745;SDS011;26454;51.164;4.488;2023-07-13T10:11:45;6.18;;;2.65;;
40745;SDS011;26454;51.164;4.488;2023-07-13T10:14:16;10.00;;;2.35;;
40745;SDS011;26454;51.164;4.488;2023-07-13T10:16:43;6.50;;;2.92;;
40745;SDS011;26454;51.164;4.488;2023-07-13T10:19:12;6.88;;;2.67;;
40745;SDS011;26454;51.164;4.488;2023-07-13T10:24:11;6.78;;;2.75;;
40745;SDS011;26454;51.164;4.488;2023-07-13T10:26:41;7.57;;;2.90;;
40745;SDS011;26454;51.164;4.488;2023-07-13T10:29:11;8.85;;;2.90;;
40745;SDS011;26454;51.164;4.488;2023-07-13T10:31:37;10.20;;;2.80;;
40745;SDS011;26454;51.164;4.488;2023-07-13T10:34:03;10.07;;;3.40;;
40745;SDS011;26454;51.164;4.488;2023-07-13T10:36:39;6.88;;;2.13;;
40745;SDS011;26454;51.164;4.488;2023-07-13T10:39:09;6.72;;;2.80;;
40745;SDS011;26454;51.164;4.488;2023-07-13T10:41:38;8.68;;;3.17;;
40745;SDS011;26454;51.164;4.488;2023-07-13T10:44:05;5.18;;;2.20;;
40745;SDS011;26454;51.164;4.488;2023-07-13T10:46:32;8.88;;;2.30;;
40745;SDS011;26454;51.164;4.488;2023-07-13T10:48:59;5.63;;;1.80;;
40745;SDS011;26454;51.164;4.488;2023-07-13T10:51:27;4.38;;;2.17;;
40745;SDS011;26454;51.164;4.488;2023-07-13T10:54:10;7.38;;;2.70;;
40745;SDS011;26454;51.164;4.488;2023-07-13T10:56:39;7.65;;;2.40;;
40745;SDS011;26454;51.164;4.488;2023-07-13T10:59:20;7.13;;;2.38;;
40745;SDS011;26454;51.164;4.488;2023-07-13T11:01:55;6.20;;;2.25;;
40745;SDS011;26454;51.164;4.488;2023-07-13T11:04:22;6.47;;;1.93;;
40745;SDS011;26454;51.164;4.488;2023-07-13T11:06:50;7.43;;;2.30;;
40745;SDS011;26454;51.164;4.488;2023-07-13T11:09:25;4.53;;;2.30;;
40745;SDS011;26454;51.164;4.488;2023-07-13T11:11:58;5.03;;;1.85;;
40745;SDS011;26454;51.164;4.488;2023-07-13T11:14:27;3.80;;;1.75;;
40745;SDS011;26454;51.164;4.488;2023-07-13T11:16:53;8.45;;;2.17;;
40745;SDS011;26454;51.164;4.488;2023-07-13T11:19:27;6.95;;;2.55;;
40745;SDS011;26454;51.164;4.488;2023-07-13T11:24:47;9.70;;;2.75;;
40745;SDS011;26454;51.164;4.488;2023-07-13T11:27:21;4.97;;;2.13;;
40745;SDS011;26454;51.164;4.488;2023-07-13T11:29:48;6.68;;;2.28;;
40745;SDS011;26454;51.164;4.488;2023-07-13T11:32:23;4.85;;;1.75;;
40745;SDS011;26454;51.164;4.488;2023-07-13T11:34:51;7.78;;;1.85;;
40745;SDS011;26454;51.164;4.488;2023-07-13T11:37:19;4.95;;;2.25;;
40745;SDS011;26454;51.164;4.488;2023-07-13T11:39:45;11.63;;;3.00;;
40745;SDS011;26454;51.164;4.488;2023-07-13T11:42:13;15.10;;;3.55;;
40745;SDS011;26454;51.164;4.488;2023-07-13T11:44:45;6.93;;;3.35;;
40745;SDS011;26454;51.164;4.488;2023-07-13T11:47:14;7.05;;;2.90;;
40745;SDS011;26454;51.164;4.488;2023-07-13T11:49:44;5.53;;;3.75;;
40745;SDS011;26454;51.164;4.488;2023-07-13T11:52:16;5.78;;;3.55;;
40745;SDS011;26454;51.164;4.488;2023-07-13T11:54:46;9.63;;;5.75;;
40745;SDS011;26454;51.164;4.488;2023-07-13T11:57:24;9.32;;;4.60;;
40745;SDS011;26454;51.164;4.488;2023-07-13T11:59:51;9.10;;;5.68;;
40745;SDS011;26454;51.164;4.488;2023-07-13T12:02:25;11.32;;;6.28;;
40745;SDS011;26454;51.164;4.488;2023-07-13T12:04:53;9.25;;;6.68;;
40745;SDS011;26454;51.164;4.488;2023-07-13T12:07:19;11.30;;;6.78;;
40745;SDS011;26454;51.164;4.488;2023-07-13T12:09:45;8.80;;;5.32;;
40745;SDS011;26454;51.164;4.488;2023-07-13T12:12:12;11.98;;;5.72;;
40745;SDS011;26454;51.164;4.488;2023-07-13T12:14:38;10.70;;;5.88;;
40745;SDS011;26454;51.164;4.488;2023-07-13T12:17:08;9.43;;;5.47;;
40745;SDS011;26454;51.164;4.488;2023-07-13T12:19:34;9.65;;;5.20;;
40745;SDS011;26454;51.164;4.488;2023-07-13T12:22:00;10.23;;;5.50;;
40745;SDS011;26454;51.164;4.488;2023-07-13T12:24:26;9.82;;;5.05;;
40745;SDS011;26454;51.164;4.488;2023-07-13T12:27:02;7.35;;;4.68;;
40745;SDS011;26454;51.164;4.488;2023-07-13T12:29:28;6.57;;;4.45;;
40745;SDS011;26454;51.164;4.488;2023-07-13T12:31:55;6.85;;;4.15;;
40745;SDS011;26454;51.164;4.488;2023-07-13T12:34:22;4.45;;;3.42;;
40745;SDS011;26454;51.164;4.488;2023-07-13T12:36:51;7.80;;;4.00;;
40745;SDS011;26454;51.164;4.488;2023-07-13T12:39:19;5.85;;;3.30;;
40745;SDS011;26454;51.164;4.488;2023-07-13T12:41:46;6.93;;;3.95;;
40745;SDS011;26454;51.164;4.488;2023-07-13T12:44:14;4.68;;;3.28;;
40745;SDS011;26454;51.164;4.488;2023-07-13T12:46:50;9.90;;;3.78;;
40745;SDS011;26454;51.164;4.488;2023-07-13T12:49:18;4.22;;;3.45;;
40745;SDS011;26454;51.164;4.488;2023-07-13T12:51:49;5.35;;;3.70;;
40745;SDS011;26454;51.164;4.488;2023-07-13T12:54:16;5.95;;;3.20;;
40745;SDS011;26454;51.164;4.488;2023-07-13T12:56:44;5.00;;;3.53;;
40745;SDS011;26454;51.164;4.488;2023-07-13T12:59:18;7.57;;;3.30;;
40745;SDS011;26454;51.164;4.488;2023-07-13T13:01:45;5.88;;;3.13;;
40745;SDS011;26454;51.164;4.488;2023-07-13T13:04:11;7.22;;;3.42;;
40745;SDS011;26454;51.164;4.488;2023-07-13T13:06:38;5.60;;;2.90;;
40745;SDS011;26454;51.164;4.488;2023-07-13T13:09:11;7.90;;;4.00;;
40745;SDS011;26454;51.164;4.488;2023-07-13T13:11:38;5.95;;;2.83;;
40745;SDS011;26454;51.164;4.488;2023-07-13T13:14:05;6.28;;;2.63;;
40745;SDS011;26454;51.164;4.488;2023-07-13T13:16:33;4.13;;;2.40;;
40745;SDS011;26454;51.164;4.488;2023-07-13T13:19:01;5.93;;;2.60;;
40745;SDS011;26454;51.164;4.488;2023-07-13T13:21:29;6.38;;;2.50;;
40745;SDS011;26454;51.164;4.488;2023-07-13T13:23:55;6.43;;;2.47;;
40745;SDS011;26454;51.164;4.488;2023-07-13T13:26:22;7.43;;;2.17;;
40745;SDS011;26454;51.164;4.488;2023-07-13T13:28:49;7.22;;;2.50;;
40745;SDS011;26454;51.164;4.488;2023-07-13T13:31:15;5.50;;;2.53;;
40745;SDS011;26454;51.164;4.488;2023-07-13T13:33:42;11.55;;;2.92;;
40745;SDS011;26454;51.164;4.488;2023-07-13T13:36:16;5.03;;;1.98;;
40745;SDS011;26454;51.164;4.488;2023-07-13T13:38:43;3.85;;;2.08;;
40745;SDS011;26454;51.164;4.488;2023-07-13T13:41:10;5.68;;;2.28;;
40745;SDS011;26454;51.164;4.488;2023-07-13T13:43:36;6.68;;;2.63;;
40745;SDS011;26454;51.164;4.488;2023-07-13T13:46:02;5.20;;;2.05;;
40745;SDS011;26454;51.164;4.488;2023-07-13T13:48:31;3.30;;;2.28;;
40745;SDS011;26454;51.164;4.488;2023-07-13T13:50:58;7.03;;;2.30;;
40745;SDS011;26454;51.164;4.488;2023-07-13T13:53:25;5.07;;;1.98;;
40745;SDS011;26454;51.164;4.488;2023-07-13T13:55:51;3.50;;;1.88;;
40745;SDS011;26454;51.164;4.488;2023-07-13T13:58:18;4.78;;;2.08;;
40745;SDS011;26454;51.164;4.488;2023-07-13T14:00:44;2.75;;;1.70;;
40745;SDS011;26454;51.164;4.488;2023-07-13T14:03:19;2.88;;;1.85;;
40745;SDS011;26454;51.164;4.488;2023-07-13T14:05:46;3.33;;;1.60;;
40745;SDS011;26454;51.164;4.488;2023-07-13T14:08:14;4.75;;;2.20;;
40745;SDS011;26454;51.164;4.488;2023-07-13T14:10:40;5.85;;;1.77;;
40745;SDS011;26454;51.164;4.488;2023-07-13T14:13:07;3.42;;;1.90;;
40745;SDS011;26454;51.164;4.488;2023-07-13T14:15:42;5.55;;;2.40;;
40745;SDS011;26454;51.164;4.488;2023-07-13T14:18:08;8.18;;;2.75;;
40745;SDS011;26454;51.164;4.488;2023-07-13T14:20:34;9.43;;;2.50;;
40745;SDS011;26454;51.164;4.488;2023-07-13T14:23:00;3.97;;;2.13;;
40745;SDS011;26454;51.164;4.488;2023-07-13T14:25:26;5.00;;;1.98;;
40745;SDS011;26454;51.164;4.488;2023-07-13T14:27:53;3.53;;;2.05;;
40745;SDS011;26454;51.164;4.488;2023-07-13T14:30:22;7.85;;;2.13;;
40745;SDS011;26454;51.164;4.488;2023-07-13T14:32:48;4.68;;;2.05;;
40745;SDS011;26454;51.164;4.488;2023-07-13T14:35:15;4.75;;;2.00;;
40745;SDS011;26454;51.164;4.488;2023-07-13T14:37:41;4.45;;;2.17;;
40745;SDS011;26454;51.164;4.488;2023-07-13T14:40:16;9.15;;;2.95;;
40745;SDS011;26454;51.164;4.488;2023-07-13T14:42:42;5.25;;;1.92;;
40745;SDS011;26454;51.164;4.488;2023-07-13T14:45:12;7.43;;;2.58;;
40745;SDS011;26454;51.164;4.488;2023-07-13T14:50:04;5.30;;;2.25;;
40745;SDS011;26454;51.164;4.488;2023-07-13T14:52:34;7.72;;;2.13;;
40745;SDS011;26454;51.164;4.488;2023-07-13T14:55:00;6.68;;;1.80;;
40745;SDS011;26454;51.164;4.488;2023-07-13T14:57:26;6.85;;;2.03;;
40745;SDS011;26454;51.164;4.488;2023-07-13T14:59:52;4.32;;;1.92;;